Airfield :
LOGIN :

Register | Disclaimer

   EN    FR    IT 

 










Legend :    VFR   Marginal VFR   IFR   Intensive IFR   Very Intensive IFR
Visi :
Ceiling :
>= 8 km
>= 3000ft
5 to 8 km
1000 to 3000 ft
1500m to 5 km
500 to 1000 ft
800 to 1500m
200 to 500 ft
< 800m
< 200 ft
Symbols :   Thunderstorms  Fog  Heavy snow  Heavy precipitations  Wind > 20 kt
SIGMETs :     Misc.  Thunderstorms  Icing  Turbulence  Mountain Waves  Volcanic Ashes







- Airport Elevation : 53 ft
- IATA code : AGP


LEMG - Malaga

CURRENT METAR :
  • 170730Z 29003KT 260V330 7000 SCT016 24/21 Q1018 NOSIG

EXPIRED METARs :
  • 170700Z 29002KT 7000 SCT016 23/20 Q1018 NOSIG
  • 170630Z VRB01KT 7000 FEW008 22/20 Q1018 NOSIG
  • 170600Z 28002KT 7000 NSC 22/20 Q1018 NOSIG
  • 170530Z 29002KT 7000 FEW011 22/20 Q1017 NOSIG
  • 170500Z 30004KT 9999 FEW011 22/20 Q1017 NOSIG

TAF TAF LEMG
Valid from the 17 at 06:00 until the 18 at 06:00 UTC


170500Z 1706/1806 VRB02KT 9999 FEW012 TX29/1714Z TN21/1706Z
PROB40
TEMPO 1706/1710 BKN012
BECMG 1707/1710 13008KT
BECMG 1719/1722 VRB02KT
PROB40
TEMPO 1723/1806 BKN012
No reported NOTAMs for that airfield.



MET'MAP, your aeronautical weather chart ! - Copyright ORBIFLY December 2007 - Disclaimer

ORBIFLY MET'MAP TEAM :

Programming & Development : Alexandra Zaïnal
Concept & Development : Baudouin d'Aumeries
Co-Development & Prog : Marc-Olivier Méhu
Technical & hardware support : Manuel Goepfert

Contact : metmap@orbifly.com




SOURCES & CREDITS :

   NOAA